Time;durP1;ratioP1;P1;durP2;ratioP2;P2;SDS_P1;SDS_P2;PMS_P1;PMS_P2;Temp;Humidity;BMP_temperature;BMP_pressure;BME280_temperature;BME280_humidity;BME280_pressure;Samples;Min_cycle;Max_cycle;Signal;HPM_P1;HPM_P2
2023/08/05 00:02:15;;;;;;;;;;;;;;;14.28;100.00;101664.72;5028962;28;20023;-77
2023/08/05 00:04:41;;;;;;;;;;;;;;;14.16;100.00;101667.41;5011160;28;19929;-78
2023/08/05 00:07:06;;;;;;;;;;;;;;;14.01;100.00;101660.53;5015040;28;19928;-78
2023/08/05 00:09:31;;;;;;;;;;;;;;;13.97;100.00;101665.28;5013325;28;19928;-77
2023/08/05 00:11:56;;;;;;;;;;;;;;;13.95;100.00;101669.94;5014861;28;19972;-78
2023/08/05 00:14:21;;;;;;;;;;;;;;;13.96;100.00;101660.88;5012858;28;20008;-77
2023/08/05 00:16:47;;;;;;;;;;;;;;;13.94;100.00;101660.13;5027124;28;19963;-78
2023/08/05 00:19:12;;;;;;;;;;;;;;;13.90;100.00;101656.00;5027560;28;20299;-78
2023/08/05 00:21:37;;;;;;;;;;;;;;;13.89;100.00;101663.22;5015888;28;20364;-78
2023/08/05 00:24:02;;;;;;;;;;;;;;;13.93;100.00;101656.59;5016262;28;20391;-78
2023/08/05 00:26:28;;;;;;;;;;;;;;;13.92;100.00;101644.06;5018198;28;20379;-78
2023/08/05 00:28:53;;;;;;;;;;;;;;;14.03;100.00;101650.47;5011589;28;19947;-78
2023/08/05 00:31:18;;;;;;;;;;;;;;;14.06;100.00;101650.19;5031776;28;19924;-78
2023/08/05 00:33:43;;;;;;;;;;;;;;;14.10;100.00;101655.25;5010949;28;19921;-78
2023/08/05 00:36:08;;;;;;;;;;;;;;;14.15;100.00;101652.19;5030675;28;19959;-78
2023/08/05 00:38:34;;;;;;;;;;;;;;;14.15;100.00;101651.34;5008570;28;20383;-78
2023/08/05 00:40:59;;;;;;;;;;;;;;;14.15;100.00;101651.34;5026055;28;20398;-78
2023/08/05 00:43:24;;;;;;;;;;;;;;;14.13;100.00;101650.59;5015196;28;20379;-78
2023/08/05 00:45:49;;;;;;;;;;;;;;;14.10;100.00;101646.28;5016247;28;20047;-78
2023/08/05 00:48:15;;;;;;;;;;;;;;;14.13;100.00;101643.34;5011690;28;19931;-78
2023/08/05 00:50:40;;;;;;;;;;;;;;;14.19;100.00;101642.84;5013039;28;19920;-78
2023/08/05 00:53:05;;;;;;;;;;;;;;;14.24;100.00;101637.06;5016785;28;19921;-77
2023/08/05 00:55:30;;;;;;;;;;;;;;;14.28;100.00;101635.84;5008062;28;20391;-78
2023/08/05 00:57:56;;;;;;;;;;;;;;;14.29;100.00;101637.56;5024879;28;20391;-78
2023/08/05 01:00:21;;;;;;;;;;;;;;;14.28;100.00;101635.84;5012244;28;19987;-77
2023/08/05 01:02:46;;;;;;;;;;;;;;;14.28;100.00;101633.13;5027790;28;20331;-77
2023/08/05 01:05:11;;;;;;;;;;;;;;;14.29;100.00;101634.84;5029020;28;20914;-78
2023/08/05 01:07:37;;;;;;;;;;;;;;;14.31;100.00;101632.03;5029742;28;20002;-78
2023/08/05 01:10:02;;;;;;;;;;;;;;;14.36;100.00;101627.97;5011307;28;20004;-77
2023/08/05 01:12:27;;;;;;;;;;;;;;;14.43;100.00;101630.19;5024160;28;20146;-78
2023/08/05 01:14:53;;;;;;;;;;;;;;;14.45;100.00;101620.97;5027579;28;19931;-78
2023/08/05 01:17:18;;;;;;;;;;;;;;;14.47;100.00;101608.19;5013703;28;19924;-77
2023/08/05 01:19:44;;;;;;;;;;;;;;;14.48;100.00;101607.19;5023817;28;19920;-78
2023/08/05 01:22:21;;;;;;;;;;;;;;;14.38;100.00;101587.31;5010428;28;20356;-78
2023/08/05 01:24:48;;;;;;;;;;;;;;;14.43;100.00;101608.56;5024875;28;20420;-78
2023/08/05 01:27:13;;;;;;;;;;;;;;;14.32;100.00;101595.91;5007662;28;19928;-78
2023/08/05 01:29:38;;;;;;;;;;;;;;;14.28;100.00;101594.47;5030008;28;20351;-78
2023/08/05 01:32:04;;;;;;;;;;;;;;;14.22;100.00;101594.00;5010840;28;20902;-78
2023/08/05 01:34:29;;;;;;;;;;;;;;;14.15;100.00;101594.63;5029120;28;19916;-78
2023/08/05 01:36:55;;;;;;;;;;;;;;;14.02;100.00;101601.00;5025577;28;20028;-78
2023/08/05 01:39:20;;;;;;;;;;;;;;;13.97;100.00;101607.75;5027587;28;20378;-77
2023/08/05 01:41:45;;;;;;;;;;;;;;;13.94;100.00;101601.63;5011327;28;20023;-78
2023/08/05 01:44:10;;;;;;;;;;;;;;;13.90;100.00;101602.84;5027255;28;19921;-77
2023/08/05 01:46:35;;;;;;;;;;;;;;;13.89;100.00;101598.44;5009119;28;19928;-77
2023/08/05 01:49:01;;;;;;;;;;;;;;;13.89;100.00;101584.94;5011852;28;19997;-77
2023/08/05 01:51:26;;;;;;;;;;;;;;;13.86;100.00;101587.88;5020356;28;20031;-78
2023/08/05 01:53:51;;;;;;;;;;;;;;;13.85;100.00;101604.19;5029648;28;19964;-77
2023/08/05 01:56:16;;;;;;;;;;;;;;;13.82;100.00;101601.75;5014556;28;20035;-78
2023/08/05 01:58:42;;;;;;;;;;;;;;;13.88;100.00;101601.25;5050670;28;19927;-78
2023/08/05 02:01:07;;;;;;;;;;;;;;;13.97;100.00;101592.41;5015734;28;19921;-77
2023/08/05 02:03:32;;;;;;;;;;;;;;;14.03;100.00;101600.00;5032436;28;19936;-78
2023/08/05 02:05:57;;;;;;;;;;;;;;;13.98;100.00;101590.59;5014110;28;19931;-77
2023/08/05 02:08:22;;;;;;;;;;;;;;;13.95;100.00;101599.75;5014637;28;19928;-78
2023/08/05 02:10:48;;;;;;;;;;;;;;;13.96;100.00;101598.78;5029973;28;19921;-77
2023/08/05 02:13:14;;;;;;;;;;;;;;;14.00;100.00;101600.25;5029030;28;19928;-77
2023/08/05 02:15:39;;;;;;;;;;;;;;;14.04;100.00;101593.63;5030799;28;20010;-77
2023/08/05 02:18:04;;;;;;;;;;;;;;;14.02;100.00;101597.47;5019092;28;20442;-77
2023/08/05 02:20:30;;;;;;;;;;;;;;;14.03;100.00;101607.28;5015994;28;19964;-77
2023/08/05 02:22:55;;;;;;;;;;;;;;;14.06;100.00;101607.88;5030142;28;20051;-77
2023/08/05 02:25:20;;;;;;;;;;;;;;;14.08;100.00;101611.31;5016960;28;20012;-77
2023/08/05 02:27:45;;;;;;;;;;;;;;;14.12;100.00;101608.38;5014496;28;20034;-77
2023/08/05 02:30:10;;;;;;;;;;;;;;;14.15;100.00;101608.13;5014837;28;20341;-78
2023/08/05 02:32:36;;;;;;;;;;;;;;;14.21;100.00;101604.91;5012726;28;20369;-78
2023/08/05 02:35:01;;;;;;;;;;;;;;;14.27;100.00;101599.00;5013600;28;20012;-78
2023/08/05 02:37:26;;;;;;;;;;;;;;;14.32;100.00;101596.78;5028543;28;19921;-78
2023/08/05 02:39:51;;;;;;;;;;;;;;;14.36;100.00;101589.28;5011998;28;19964;-77
2023/08/05 02:42:17;;;;;;;;;;;;;;;14.39;100.00;101589.03;5012734;28;20015;-77
2023/08/05 02:44:42;;;;;;;;;;;;;;;14.39;100.00;101572.81;5031406;28;19927;-78
2023/08/05 02:47:07;;;;;;;;;;;;;;;14.37;100.00;101575.66;5030434;28;19935;-78
2023/08/05 02:49:33;;;;;;;;;;;;;;;14.39;100.00;101580.94;5015400;28;19920;-78
2023/08/05 02:51:58;;;;;;;;;;;;;;;14.38;100.00;101576.50;5015060;28;19925;-77
2023/08/05 02:54:23;;;;;;;;;;;;;;;14.40;100.00;101571.84;5013354;28;20386;-78
2023/08/05 02:56:49;;;;;;;;;;;;;;;14.33;100.00;101571.50;5013186;28;20402;-78
2023/08/05 02:59:14;;;;;;;;;;;;;;;14.29;100.00;101571.88;5014879;28;20018;-77
2023/08/05 03:01:39;;;;;;;;;;;;;;;14.15;100.00;101554.97;5029068;28;20469;-77
2023/08/05 03:04:04;;;;;;;;;;;;;;;14.19;100.00;101566.34;5030908;28;19920;-78
2023/08/05 03:06:30;;;;;;;;;;;;;;;14.19;100.00;101571.75;5016245;28;19916;-77
2023/08/05 03:08:55;;;;;;;;;;;;;;;14.15;100.00;101571.16;5032243;28;19932;-77
2023/08/05 03:11:21;;;;;;;;;;;;;;;14.09;100.00;101569.81;5010751;28;19960;-77
2023/08/05 03:13:46;;;;;;;;;;;;;;;14.01;100.00;101561.47;5031425;28;20015;-77
2023/08/05 03:16:12;;;;;;;;;;;;;;;14.04;100.00;101565.75;5012347;28;19932;-78
2023/08/05 03:18:38;;;;;;;;;;;;;;;14.08;100.00;101560.00;5013080;28;20367;-77
2023/08/05 03:21:03;;;;;;;;;;;;;;;14.16;100.00;101553.13;5012108;28;19921;-77
2023/08/05 03:23:28;;;;;;;;;;;;;;;14.24;100.00;101556.03;5024394;28;19955;-77
2023/08/05 03:25:54;;;;;;;;;;;;;;;14.19;100.00;101552.84;5017229;28;19927;-78
2023/08/05 03:28:19;;;;;;;;;;;;;;;14.14;100.00;101549.69;5017651;28;19931;-77
2023/08/05 03:30:44;;;;;;;;;;;;;;;14.07;100.00;101544.78;5007563;28;19931;-77
2023/08/05 03:33:10;;;;;;;;;;;;;;;14.00;100.00;101546.25;5017040;28;19931;-76
2023/08/05 03:35:35;;;;;;;;;;;;;;;13.92;100.00;101549.59;5020012;28;19920;-77
2023/08/05 03:38:00;;;;;;;;;;;;;;;13.82;100.00;101543.22;5014633;28;20228;-77
2023/08/05 03:40:25;;;;;;;;;;;;;;;13.75;100.00;101539.31;5028901;28;19949;-77
2023/08/05 03:42:50;;;;;;;;;;;;;;;13.64;100.00;101527.53;5025517;28;20545;-77
2023/08/05 03:45:16;;;;;;;;;;;;;;;13.60;100.00;101525.19;5011602;28;19988;-77
2023/08/05 03:47:42;;;;;;;;;;;;;;;13.56;100.00;101516.47;5024252;28;20232;-77
2023/08/05 03:50:08;;;;;;;;;;;;;;;13.41;100.00;101523.09;5029983;28;19932;-77
2023/08/05 03:52:33;;;;;;;;;;;;;;;13.43;100.00;101524.69;5028896;28;20265;-77
2023/08/05 03:54:59;;;;;;;;;;;;;;;13.44;100.00;101523.72;5028650;28;20072;-77
2023/08/05 03:57:24;;;;;;;;;;;;;;;13.54;100.00;101512.19;5009907;28;19943;-77
2023/08/05 03:59:49;;;;;;;;;;;;;;;13.48;100.00;101519.78;5009328;28;19920;-77
2023/08/05 04:02:15;;;;;;;;;;;;;;;13.54;100.00;101514.91;5023321;28;19920;-77
2023/08/05 04:04:42;;;;;;;;;;;;;;;13.59;100.00;101510.00;5019363;28;20039;-77
2023/08/05 04:07:07;;;;;;;;;;;;;;;13.64;100.00;101508.63;5033346;28;19932;-77
2023/08/05 04:09:35;;;;;;;;;;;;;;;13.67;100.00;101499.41;5013750;28;19921;-77
2023/08/05 04:12:03;;;;;;;;;;;;;;;13.69;100.00;101500.16;5023478;28;20045;-77
2023/08/05 04:14:29;;;;;;;;;;;;;;;13.69;100.00;101497.47;5026177;28;19932;-77
2023/08/05 04:16:55;;;;;;;;;;;;;;;13.70;100.00;101496.47;5008028;28;19928;-77
2023/08/05 04:19:21;;;;;;;;;;;;;;;13.70;100.00;101501.03;5017646;28;20379;-77
2023/08/05 04:21:47;;;;;;;;;;;;;;;13.72;100.00;101509.88;5024100;28;19933;-77
2023/08/05 04:24:18;;;;;;;;;;;;;;;13.73;100.00;101509.72;5026194;28;19928;-77
2023/08/05 04:26:43;;;;;;;;;;;;;;;13.75;100.00;101510.47;5027432;28;19920;-76
2023/08/05 04:29:10;;;;;;;;;;;;;;;13.81;100.00;101506.41;5031455;28;19964;-77
2023/08/05 04:31:37;;;;;;;;;;;;;;;13.92;100.00;101502.81;5010212;28;20014;-77
2023/08/05 04:34:02;;;;;;;;;;;;;;;13.97;100.00;101492.50;5027373;28;19929;-77
2023/08/05 04:36:27;;;;;;;;;;;;;;;13.99;100.00;101487.00;5011706;28;19920;-77
2023/08/05 04:38:53;;;;;;;;;;;;;;;14.01;100.00;101479.66;5028289;28;20290;-77
2023/08/05 04:41:18;;;;;;;;;;;;;;;13.96;100.00;101477.31;5014300;28;19964;-77
2023/08/05 04:43:43;;;;;;;;;;;;;;;13.99;100.00;101470.81;5027323;28;20007;-77
2023/08/05 04:46:11;;;;;;;;;;;;;;;14.01;100.00;101472.38;5031158;28;19951;-77
2023/08/05 04:48:36;;;;;;;;;;;;;;;14.02;100.00;101471.41;5027206;28;19925;-77
2023/08/05 04:51:01;;;;;;;;;;;;;;;14.06;100.00;101467.47;5027455;28;20271;-77
2023/08/05 04:53:26;;;;;;;;;;;;;;;14.07;100.00;101463.78;5027838;28;20670;-77
2023/08/05 04:55:52;;;;;;;;;;;;;;;14.11;100.00;101464.38;5014038;28;20362;-77
2023/08/05 04:58:17;;;;;;;;;;;;;;;14.09;100.00;101464.53;5023459;28;20312;-77
2023/08/05 05:00:42;;;;;;;;;;;;;;;14.11;100.00;101467.06;5026001;28;20446;-76
2023/08/05 05:03:07;;;;;;;;;;;;;;;14.12;100.00;101466.09;5014101;28;20393;-77
2023/08/05 05:05:34;;;;;;;;;;;;;;;14.14;100.00;101461.44;5028662;28;20438;-77
2023/08/05 05:07:59;;;;;;;;;;;;;;;14.13;100.00;101457.00;5011995;28;20379;-77
2023/08/05 05:10:25;;;;;;;;;;;;;;;14.15;100.00;101459.59;5028516;28;19927;-77
2023/08/05 05:12:50;;;;;;;;;;;;;;;14.19;100.00;101455.63;5029900;28;20133;-77
2023/08/05 05:15:15;;;;;;;;;;;;;;;14.17;100.00;101454.94;5028757;28;20371;-77
2023/08/05 05:17:40;;;;;;;;;;;;;;;14.23;100.00;101460.66;5027293;28;19928;-77
2023/08/05 05:20:06;;;;;;;;;;;;;;;14.19;100.00;101458.34;5025000;28;21673;-77
2023/08/05 05:22:31;;;;;;;;;;;;;;;14.13;100.00;101459.72;5029381;28;19947;-77
2023/08/05 05:24:57;;;;;;;;;;;;;;;14.16;100.00;101456.75;5010086;28;20735;-77
2023/08/05 05:27:22;;;;;;;;;;;;;;;14.16;100.00;101454.06;5025877;28;20462;-77
2023/08/05 05:29:48;;;;;;;;;;;;;;;14.14;100.00;101460.59;5016468;28;19963;-77
2023/08/05 05:32:13;;;;;;;;;;;;;;;14.20;100.00;101455.53;5027539;28;19920;-77
2023/08/05 05:34:38;;;;;;;;;;;;;;;14.21;100.00;101453.66;5027582;28;20417;-77
2023/08/05 05:37:03;;;;;;;;;;;;;;;14.20;100.00;101449.25;5010811;28;19960;-76
2023/08/05 05:39:29;;;;;;;;;;;;;;;14.20;100.00;101438.44;5027837;28;20012;-76
2023/08/05 05:41:55;;;;;;;;;;;;;;;14.24;100.00;101438.06;5024062;28;19960;-77
2023/08/05 05:44:20;;;;;;;;;;;;;;;14.24;100.00;101432.69;5007947;28;19928;-77
2023/08/05 05:46:46;;;;;;;;;;;;;;;14.29;100.00;101434.97;5025843;28;19925;-77
2023/08/05 05:49:11;;;;;;;;;;;;;;;14.28;100.00;101437.81;5018936;28;19940;-77
2023/08/05 05:51:36;;;;;;;;;;;;;;;14.34;100.00;101440.84;5010788;28;19968;-77
2023/08/05 05:54:02;;;;;;;;;;;;;;;14.34;100.00;101439.97;5028050;28;20011;-77
2023/08/05 05:56:27;;;;;;;;;;;;;;;14.38;100.00;101436.03;4999490;28;19921;-77
2023/08/05 05:58:54;;;;;;;;;;;;;;;14.29;100.00;101439.53;5012877;28;20394;-77
2023/08/05 06:01:19;;;;;;;;;;;;;;;14.36;100.00;101440.72;5029187;28;20036;-78
2023/08/05 06:03:44;;;;;;;;;;;;;;;14.38;100.00;101445.03;5019408;28;20215;-78
2023/08/05 06:06:10;;;;;;;;;;;;;;;14.34;100.00;101438.16;5025963;28;19917;-77
2023/08/05 06:08:36;;;;;;;;;;;;;;;14.40;100.00;101442.19;5022192;28;20297;-77
2023/08/05 06:11:03;;;;;;;;;;;;;;;14.43;100.00;101443.78;5011092;28;19956;-77
2023/08/05 06:13:28;;;;;;;;;;;;;;;14.37;100.00;101446.00;5020775;28;19933;-75
2023/08/05 06:15:54;;;;;;;;;;;;;;;14.48;100.00;101444.22;5004797;28;19974;-75
2023/08/05 06:18:19;;;;;;;;;;;;;;;14.61;100.00;101436.78;5025237;28;20026;-76
2023/08/05 06:20:46;;;;;;;;;;;;;;;14.74;100.00;101433.06;5019934;28;19921;-76
2023/08/05 06:23:11;;;;;;;;;;;;;;;14.85;100.00;101436.53;5020342;28;19925;-76
2023/08/05 06:25:37;;;;;;;;;;;;;;;15.02;100.00;101436.06;5025854;28;19920;-77
2023/08/05 06:28:03;;;;;;;;;;;;;;;14.99;100.00;101423.69;5021747;28;19925;-77
2023/08/05 06:30:28;;;;;;;;;;;;;;;15.11;100.00;101430.69;5012441;28;19925;-77
2023/08/05 06:32:53;;;;;;;;;;;;;;;15.13;100.00;101419.75;5019143;28;19917;-76
2023/08/05 06:35:18;;;;;;;;;;;;;;;15.11;100.00;101419.88;5028048;28;20113;-76
2023/08/05 06:37:44;;;;;;;;;;;;;;;15.19;100.00;101429.19;5007718;28;19920;-76
2023/08/05 06:40:09;;;;;;;;;;;;;;;15.30;100.00;101421.81;5027754;28;20305;-76
2023/08/05 06:42:34;;;;;;;;;;;;;;;15.36;100.00;101424.97;5012434;28;19921;-76
2023/08/05 06:44:59;;;;;;;;;;;;;;;15.40;100.00;101419.16;5026835;28;19921;-77
2023/08/05 06:47:30;;;;;;;;;;;;;;;15.52;100.00;101406.38;5026430;28;19967;-76
2023/08/05 06:49:56;;;;;;;;;;;;;;;15.58;100.00;101400.41;5014482;28;19920;-74
2023/08/05 06:52:22;;;;;;;;;;;;;;;15.68;100.00;101405.00;5027610;28;19931;-74
2023/08/05 06:54:47;;;;;;;;;;;;;;;15.65;100.00;101407.97;5029753;28;20019;-73
2023/08/05 06:57:12;;;;;;;;;;;;;;;15.74;100.00;101408.00;5024237;28;19956;-77
2023/08/05 06:59:37;;;;;;;;;;;;;;;15.85;100.00;101401.59;5011259;28;20019;-75
2023/08/05 07:02:03;;;;;;;;;;;;;;;15.92;100.00;101403.78;5027762;28;19921;-75
2023/08/05 07:04:28;;;;;;;;;;;;;;;15.83;100.00;101381.91;5015702;28;20027;-74
2023/08/05 07:06:53;;;;;;;;;;;;;;;15.91;100.00;101402.06;5009181;28;19996;-75
2023/08/05 07:09:19;;;;;;;;;;;;;;;15.74;100.00;101399.88;5028743;28;20426;-78
2023/08/05 07:11:45;;;;;;;;;;;;;;;15.94;100.00;101397.22;5012569;28;19921;-75
2023/08/05 07:14:10;;;;;;;;;;;;;;;15.95;100.00;101393.50;5016772;28;19968;-76
2023/08/05 07:16:35;;;;;;;;;;;;;;;15.80;100.00;101370.53;5007989;28;20396;-73
2023/08/05 07:19:01;;;;;;;;;;;;;;;16.02;100.00;101386.53;5048066;28;20447;-73
2023/08/05 07:21:26;;;;;;;;;;;;;;;16.10;100.00;101387.69;5030042;28;20402;-73
2023/08/05 07:23:51;;;;;;;;;;;;;;;16.22;100.00;101382.97;5023162;28;19921;-74
2023/08/05 07:26:16;;;;;;;;;;;;;;;16.32;100.00;101378.38;5026378;28;19932;-73
2023/08/05 07:28:42;;;;;;;;;;;;;;;16.40;100.00;101377.69;5019984;28;20350;-73
2023/08/05 07:31:09;;;;;;;;;;;;;;;16.43;100.00;101371.94;5025911;28;20249;-75
2023/08/05 07:33:34;;;;;;;;;;;;;;;16.40;100.00;101373.09;5030884;28;20317;-74
2023/08/05 07:36:09;;;;;;;;;;;;;;;16.61;100.00;101380.19;5027409;28;19962;-73
2023/08/05 07:38:35;;;;;;;;;;;;;;;16.78;100.00;101375.88;5022909;28;20351;-75
2023/08/05 07:41:00;;;;;;;;;;;;;;;16.66;100.00;101377.91;5013312;28;20032;-75
2023/08/05 07:43:29;;;;;;;;;;;;;;;16.84;100.00;101369.88;5031877;28;19982;-75
2023/08/05 07:45:56;;;;;;;;;;;;;;;16.86;100.00;101367.00;5023629;28;20570;-74
2023/08/05 07:48:21;;;;;;;;;;;;;;;16.96;100.00;101365.16;5028094;28;20248;-72
2023/08/05 07:50:47;;;;;;;;;;;;;;;17.13;100.00;101371.66;5025126;28;19925;-72
2023/08/05 07:53:13;;;;;;;;;;;;;;;17.18;100.00;101355.78;5031851;28;20536;-74
2023/08/05 07:55:41;;;;;;;;;;;;;;;17.25;100.00;101350.59;5015537;28;20375;-74
2023/08/05 07:58:07;;;;;;;;;;;;;;;17.21;100.00;101360.03;5023455;28;19925;-72
2023/08/05 08:00:33;;;;;;;;;;;;;;;17.29;100.00;101346.56;5013885;28;19979;-77
2023/08/05 08:02:58;;;;;;;;;;;;;;;17.18;100.00;101349.47;5031115;28;20330;-74
2023/08/05 08:05:24;;;;;;;;;;;;;;;17.13;100.00;101338.22;5029155;28;20094;-78
2023/08/05 08:07:50;;;;;;;;;;;;;;;17.18;100.00;101333.19;5027974;28;19931;-81
2023/08/05 08:10:15;;;;;;;;;;;;;;;17.14;100.00;101321.81;5013436;28;20472;-75
2023/08/05 08:12:41;;;;;;;;;;;;;;;17.14;100.00;101326.38;5012942;28;19968;-77
2023/08/05 08:15:07;;;;;;;;;;;;;;;17.21;100.00;101331.06;5027497;28;19921;-78
2023/08/05 08:17:32;;;;;;;;;;;;;;;17.24;100.00;101319.88;5032149;28;19958;-78
2023/08/05 08:19:57;;;;;;;;;;;;;;;17.19;100.00;101318.63;5027333;28;20016;-80
2023/08/05 08:22:22;;;;;;;;;;;;;;;17.30;100.00;101317.56;5027562;28;20287;-74
2023/08/05 08:24:47;;;;;;;;;;;;;;;17.23;100.00;101318.16;5029460;28;19920;-77
2023/08/05 08:27:13;;;;;;;;;;;;;;;17.34;100.00;101310.84;5028056;28;19916;-80
2023/08/05 08:29:38;;;;;;;;;;;;;;;17.48;100.00;101304.88;5033669;28;19951;-77
2023/08/05 08:32:03;;;;;;;;;;;;;;;17.85;100.00;101300.31;5035658;28;20060;-78
2023/08/05 08:34:29;;;;;;;;;;;;;;;17.84;100.00;101288.59;5035152;28;19921;-75
2023/08/05 08:36:54;;;;;;;;;;;;;;;18.02;100.00;101284.19;5033557;28;20800;-79
2023/08/05 08:39:19;;;;;;;;;;;;;;;17.90;100.00;101291.69;5014159;28;20256;-72
2023/08/05 08:41:44;;;;;;;;;;;;;;;17.73;100.00;101277.97;5036161;28;19921;-74
2023/08/05 08:44:10;;;;;;;;;;;;;;;17.62;100.00;101287.19;5027266;28;19952;-72
2023/08/05 08:46:35;;;;;;;;;;;;;;;17.82;100.00;101279.75;5015617;28;20232;-73
2023/08/05 08:49:01;;;;;;;;;;;;;;;17.91;100.00;101277.94;5033604;28;20024;-76
2023/08/05 08:51:26;;;;;;;;;;;;;;;17.78;100.00;101270.19;5015955;28;19939;-79
2023/08/05 08:53:51;;;;;;;;;;;;;;;17.84;100.00;101260.59;5008930;28;19933;-79
2023/08/05 08:56:16;;;;;;;;;;;;;;;17.93;100.00;101258.78;5024941;28;19917;-75
2023/08/05 08:58:42;;;;;;;;;;;;;;;18.02;100.00;101246.97;5032329;28;19935;-77
2023/08/05 09:01:07;;;;;;;;;;;;;;;17.97;100.00;101252.88;5027526;28;19927;-79
2023/08/05 09:03:33;;;;;;;;;;;;;;;18.25;100.00;101243.75;5009113;28;19917;-75
2023/08/05 09:05:58;;;;;;;;;;;;;;;18.33;100.00;101241.06;5022717;28;19925;-75
2023/08/05 09:08:24;;;;;;;;;;;;;;;18.34;100.00;101248.22;5005108;28;19972;-75
2023/08/05 09:10:49;;;;;;;;;;;;;;;18.46;100.00;101237.06;5011535;28;19920;-78
2023/08/05 09:13:19;;;;;;;;;;;;;;;18.88;100.00;101230.78;5011849;28;19920;-77
2023/08/05 09:15:45;;;;;;;;;;;;;;;19.11;100.00;101228.34;5005782;28;19924;-76
2023/08/05 09:18:10;;;;;;;;;;;;;;;19.17;100.00;101207.75;5010507;28;20358;-75
2023/08/05 09:20:35;;;;;;;;;;;;;;;18.99;100.00;101230.53;5008776;28;19973;-77
2023/08/05 09:23:02;;;;;;;;;;;;;;;18.87;100.00;101223.63;5026994;28;20127;-75
2023/08/05 09:25:30;;;;;;;;;;;;;;;19.35;100.00;101210.34;5028304;28;20023;-75
2023/08/05 09:27:56;;;;;;;;;;;;;;;19.47;100.00;101202.69;5015985;28;19925;-75
2023/08/05 09:30:22;;;;;;;;;;;;;;;19.37;100.00;101202.00;5027560;28;20280;-74
2023/08/05 09:32:47;;;;;;;;;;;;;;;19.23;100.00;101196.22;5024424;28;20359;-75
2023/08/05 09:35:13;;;;;;;;;;;;;;;19.11;100.00;101194.81;5011821;28;19920;-77
2023/08/05 09:37:39;;;;;;;;;;;;;;;19.32;100.00;101192.50;5024092;28;20054;-77
2023/08/05 09:40:13;;;;;;;;;;;;;;;19.63;100.00;101186.34;5028990;28;19924;-74
2023/08/05 09:42:40;;;;;;;;;;;;;;;19.63;100.00;101175.44;5011583;28;19933;-77
2023/08/05 09:45:08;;;;;;;;;;;;;;;19.49;100.00;101173.44;5008323;28;20377;-79
2023/08/05 09:47:34;;;;;;;;;;;;;;;19.72;100.00;101172.72;5022954;28;19979;-76
2023/08/05 09:49:59;;;;;;;;;;;;;;;19.57;100.00;101170.72;5010908;28;19920;-78
2023/08/05 09:52:25;;;;;;;;;;;;;;;19.42;100.00;101166.97;5007457;28;19935;-76
2023/08/05 09:55:00;;;;;;;;;;;;;;;19.56;100.00;101160.84;5020647;28;20386;-80
2023/08/05 09:57:25;;;;;;;;;;;;;;;20.16;100.00;101160.59;5030725;28;19924;-77
2023/08/05 09:59:53;;;;;;;;;;;;;;;20.10;100.00;101142.19;5020169;28;19932;-75
2023/08/05 10:02:19;;;;;;;;;;;;;;;20.02;100.00;101138.47;5030865;28;19964;-75
2023/08/05 10:04:44;;;;;;;;;;;;;;;20.10;100.00;101136.75;5033002;28;19925;-76
2023/08/05 10:07:09;;;;;;;;;;;;;;;20.23;100.00;101134.34;5033100;28;19924;-77
2023/08/05 10:09:35;;;;;;;;;;;;;;;20.48;100.00;101128.78;5018376;28;20002;-76
2023/08/05 10:12:01;;;;;;;;;;;;;;;20.47;100.00;101132.53;5031957;28;20322;-73
2023/08/05 10:14:26;;;;;;;;;;;;;;;20.43;100.00;101126.56;5037936;28;19921;-77
2023/08/05 10:16:51;;;;;;;;;;;;;;;20.40;100.00;101124.19;5029787;28;20589;-77
2023/08/05 10:19:26;;;;;;;;;;;;;;;20.51;100.00;101121.06;5034243;28;19925;-75
2023/08/05 10:21:51;;;;;;;;;;;;;;;20.11;100.00;101124.81;5019973;28;20354;-76
2023/08/05 10:24:17;;;;;;;;;;;;;;;19.57;100.00;101124.41;5021116;28;19925;-76
2023/08/05 10:26:46;;;;;;;;;;;;;;;19.33;100.00;101112.50;5022187;28;19936;-76
2023/08/05 10:29:27;;;;;;;;;;;;;;;19.48;100.00;101107.22;5020413;28;19928;-75
2023/08/05 10:32:06;;;;;;;;;;;;;;;19.59;100.00;101107.91;5027345;28;19920;-76
2023/08/05 10:34:31;;;;;;;;;;;;;;;19.83;100.00;101101.56;5021467;28;19943;-76
2023/08/05 10:36:56;;;;;;;;;;;;;;;20.48;100.00;101091.44;5030288;28;20392;-77
2023/08/05 10:39:40;;;;;;;;;;;;;;;20.67;100.00;101090.13;5030427;28;20546;-75
2023/08/05 10:42:18;;;;;;;;;;;;;;;20.62;100.00;101089.81;5029954;28;19917;-75
2023/08/05 10:44:43;;;;;;;;;;;;;;;20.35;100.00;101093.91;5032781;28;19924;-76
2023/08/05 10:47:08;;;;;;;;;;;;;;;19.76;100.00;101087.75;5014890;28;19927;-77
2023/08/05 10:49:35;;;;;;;;;;;;;;;19.69;100.00;101081.31;5030404;28;20066;-75
2023/08/05 10:52:00;;;;;;;;;;;;;;;19.75;100.00;101077.06;5014086;28;20363;-76
2023/08/05 10:54:26;;;;;;;;;;;;;;;19.88;100.00;101074.63;5027969;28;19928;-77
2023/08/05 10:56:51;;;;;;;;;;;;;;;20.01;100.00;101079.53;5033084;28;19968;-76
2023/08/05 10:59:16;;;;;;;;;;;;;;;20.03;100.00;101069.31;5028621;28;20014;-83
2023/08/05 11:01:55;;;;;;;;;;;;;;;19.93;100.00;101072.25;5014218;28;19921;-80
2023/08/05 11:04:29;;;;;;;;;;;;;;;19.83;100.00;101071.59;5009213;28;19925;-77
2023/08/05 11:06:56;;;;;;;;;;;;;;;19.61;100.00;101054.94;5028673;28;19931;-77
2023/08/05 11:09:22;;;;;;;;;;;;;;;19.51;100.00;101043.41;5012317;28;20567;-82
2023/08/05 11:11:50;;;;;;;;;;;;;;;19.53;100.00;101048.66;5029151;28;20434;-74
2023/08/05 11:14:16;;;;;;;;;;;;;;;19.33;100.00;101039.00;5025117;28;20315;-78
2023/08/05 11:16:47;;;;;;;;;;;;;;;18.79;100.00;101050.41;5023956;28;19979;-78
2023/08/05 11:19:12;;;;;;;;;;;;;;;17.99;100.00;101058.00;5026677;28;19970;-81
2023/08/05 11:21:47;;;;;;;;;;;;;;;16.73;100.00;101080.81;5011261;28;20017;-78
2023/08/05 11:24:16;;;;;;;;;;;;;;;16.06;100.00;101097.31;5031276;28;20011;-77
2023/08/05 11:26:41;;;;;;;;;;;;;;;15.93;100.00;101092.22;5006925;28;19928;-76
2023/08/05 11:29:07;;;;;;;;;;;;;;;16.12;100.00;101077.75;5004627;28;19925;-76
2023/08/05 11:31:32;;;;;;;;;;;;;;;16.10;100.00;101068.09;5008559;28;19976;-76
2023/08/05 11:33:58;;;;;;;;;;;;;;;16.21;100.00;101069.72;5010162;28;19971;-77
2023/08/05 11:36:25;;;;;;;;;;;;;;;16.14;100.00;101072.19;5025046;28;19976;-77
2023/08/05 11:38:50;;;;;;;;;;;;;;;16.23;100.00;101067.72;5005750;28;20037;-79
2023/08/05 11:41:15;;;;;;;;;;;;;;;16.31;100.00;101060.53;5024707;28;20019;-77
2023/08/05 11:43:41;;;;;;;;;;;;;;;16.36;100.00;101051.13;5018858;28;19971;-78
2023/08/05 11:46:06;;;;;;;;;;;;;;;16.59;100.00;101046.94;5009537;28;19956;-78
2023/08/05 11:48:32;;;;;;;;;;;;;;;16.64;100.00;101036.50;5006809;28;20012;-78
2023/08/05 11:51:02;;;;;;;;;;;;;;;16.71;100.00;101047.56;5004323;28;20166;-78
2023/08/05 11:53:27;;;;;;;;;;;;;;;16.79;100.00;101046.78;5008797;28;19917;-78
2023/08/05 11:55:53;;;;;;;;;;;;;;;16.79;100.00;101053.09;5009935;28;19959;-79
2023/08/05 11:58:19;;;;;;;;;;;;;;;16.60;100.00;101051.38;5014241;28;19925;-76
2023/08/05 12:00:45;;;;;;;;;;;;;;;16.57;100.00;101048.09;5027885;28;19947;-79
2023/08/05 12:03:10;;;;;;;;;;;;;;;16.64;100.00;101043.78;5011232;28;19921;-81
2023/08/05 12:05:35;;;;;;;;;;;;;;;16.53;100.00;101023.16;5014201;28;19921;-80
2023/08/05 12:08:00;;;;;;;;;;;;;;;16.54;100.00;101034.88;5030019;28;19925;-79
2023/08/05 12:10:27;;;;;;;;;;;;;;;16.50;100.00;101034.31;5016531;28;19923;-80
2023/08/05 12:12:52;;;;;;;;;;;;;;;16.52;100.00;101035.00;5005612;28;20359;-78
2023/08/05 12:15:24;;;;;;;;;;;;;;;16.49;100.00;101027.19;5025663;28;19936;-79
2023/08/05 12:17:49;;;;;;;;;;;;;;;16.29;100.00;101032.75;5029444;28;19968;-75
2023/08/05 12:20:18;;;;;;;;;;;;;;;16.31;100.00;101028.03;5008072;28;20388;-80
2023/08/05 12:22:44;;;;;;;;;;;;;;;16.27;100.00;101023.09;5002020;28;20746;-79